createdAt,value
2019-03-30T00:01:18.580Z,18.07
2019-03-30T00:03:46.209Z,21.20
2019-03-30T00:06:13.792Z,24.63
2019-03-30T00:08:41.384Z,16.63
2019-03-30T00:11:09.111Z,19.93
2019-03-30T00:13:36.698Z,23.23
2019-03-30T00:16:07.151Z,25.90
2019-03-30T00:18:34.724Z,16.00
2019-03-30T00:21:02.344Z,11.23
2019-03-30T00:23:30.010Z,22.40
2019-03-30T00:25:57.621Z,15.83
2019-03-30T00:28:25.246Z,17.37
2019-03-30T00:30:54.246Z,25.07
2019-03-30T00:33:21.850Z,18.37
2019-03-30T00:35:49.574Z,20.27
2019-03-30T00:38:35.447Z,19.87
2019-03-30T00:41:03.238Z,20.63
2019-03-30T00:43:32.008Z,24.67
2019-03-30T00:45:59.638Z,20.63
2019-03-30T00:48:27.256Z,18.53
2019-03-30T00:50:54.943Z,22.80
2019-03-30T00:53:22.534Z,21.93
2019-03-30T00:55:50.137Z,22.97
2019-03-30T00:58:17.863Z,22.53
2019-03-30T01:00:45.496Z,28.30
2019-03-30T01:03:13.128Z,15.77
2019-03-30T01:05:40.919Z,17.37
2019-03-30T01:08:08.522Z,23.13
2019-03-30T01:10:36.159Z,16.40
2019-03-30T01:13:03.828Z,20.77
2019-03-30T01:15:31.429Z,23.80
2019-03-30T01:17:59.035Z,22.33
2019-03-30T01:20:27.014Z,11.83
2019-03-30T01:22:54.628Z,18.60
2019-03-30T01:25:22.202Z,16.87
2019-03-30T01:27:49.844Z,21.43
2019-03-30T01:30:23.410Z,22.70
2019-03-30T01:32:47.372Z,23.40
2019-03-30T01:35:15.237Z,20.03
2019-03-30T01:37:43.005Z,23.67
2019-03-30T01:40:10.643Z,22.77
2019-03-30T01:42:38.269Z,26.37
2019-03-30T01:45:06.566Z,26.43
2019-03-30T01:47:34.175Z,20.40
2019-03-30T01:50:16.225Z,21.67
2019-03-30T01:52:31.532Z,20.47
2019-03-30T01:54:59.107Z,15.40
2019-03-30T01:57:26.708Z,23.10
2019-03-30T01:59:54.347Z,23.47
2019-03-30T02:02:21.989Z,19.57
2019-03-30T02:04:49.583Z,18.97
2019-03-30T02:07:17.230Z,22.87
2019-03-30T02:09:44.818Z,20.67
2019-03-30T02:12:12.429Z,23.23
2019-03-30T02:14:40.040Z,22.03
2019-03-30T02:17:07.637Z,22.13
2019-03-30T02:19:35.244Z,35.90
2019-03-30T02:22:02.873Z,18.23
2019-03-30T02:24:30.449Z,22.13
2019-03-30T02:26:58.093Z,17.63
2019-03-30T02:29:25.670Z,23.40
2019-03-30T02:31:53.263Z,19.90
2019-03-30T02:34:23.033Z,18.77
2019-03-30T02:36:50.591Z,19.00
2019-03-30T02:39:18.554Z,19.93
2019-03-30T02:41:46.155Z,18.10
2019-03-30T02:44:13.740Z,22.97
2019-03-30T02:46:41.367Z,24.87
2019-03-30T02:49:08.954Z,23.13
2019-03-30T02:51:36.538Z,21.90
2019-03-30T02:54:04.156Z,23.77
2019-03-30T02:56:31.724Z,24.73
2019-03-30T02:58:59.335Z,24.17
2019-03-30T03:01:26.935Z,27.43
2019-03-30T03:03:54.547Z,18.73
2019-03-30T03:06:22.180Z,19.63
2019-03-30T03:08:49.772Z,19.90
2019-03-30T03:11:17.384Z,21.70
2019-03-30T03:13:45.175Z,22.47
2019-03-30T03:16:12.888Z,35.50
2019-03-30T03:18:40.517Z,28.27
2019-03-30T03:21:08.862Z,30.13
2019-03-30T03:23:36.786Z,33.23
2019-03-30T03:26:04.554Z,21.63
2019-03-30T03:28:32.146Z,23.30
2019-03-30T03:30:59.730Z,23.97
2019-03-30T03:33:27.440Z,23.00
2019-03-30T03:35:55.029Z,28.23
2019-03-30T03:38:22.663Z,29.37
2019-03-30T03:40:50.634Z,30.93
2019-03-30T03:43:18.258Z,27.27
2019-03-30T03:45:46.151Z,26.53
2019-03-30T03:48:13.883Z,28.97
2019-03-30T03:50:43.455Z,31.70
2019-03-30T03:53:12.784Z,28.37
2019-03-30T03:55:41.244Z,34.57
2019-03-30T03:58:10.525Z,32.27
2019-03-30T04:00:38.415Z,34.33
2019-03-30T04:03:09.253Z,41.07
2019-03-30T04:05:40.574Z,45.33
2019-03-30T04:08:11.334Z,38.20
2019-03-30T04:10:39.809Z,38.27
2019-03-30T04:13:10.229Z,32.73
2019-03-30T04:15:37.837Z,32.53
2019-03-30T04:18:05.559Z,29.77
2019-03-30T04:20:33.138Z,29.03
2019-03-30T04:23:01.635Z,39.67
2019-03-30T04:26:07.654Z,39.33
2019-03-30T04:28:35.342Z,29.60
2019-03-30T04:31:02.930Z,36.43
2019-03-30T04:33:30.600Z,30.30
2019-03-30T04:35:58.206Z,35.03
2019-03-30T04:38:25.821Z,31.43
2019-03-30T04:40:53.417Z,34.63
2019-03-30T04:43:21.100Z,34.83
2019-03-30T04:45:49.891Z,32.40
2019-03-30T04:48:17.471Z,32.40
2019-03-30T04:50:45.104Z,27.57
2019-03-30T04:53:12.676Z,29.53
2019-03-30T04:55:40.247Z,29.60
2019-03-30T04:58:09.443Z,27.60
2019-03-30T05:00:37.393Z,30.47
2019-03-30T05:03:05.012Z,24.53
2019-03-30T05:05:32.601Z,27.97
2019-03-30T05:08:00.194Z,24.80
2019-03-30T05:10:27.816Z,30.53
2019-03-30T05:13:07.593Z,27.73
2019-03-30T05:15:36.187Z,30.33
2019-03-30T05:18:03.830Z,28.23
2019-03-30T05:20:31.461Z,29.20
2019-03-30T05:22:59.034Z,33.63
2019-03-30T05:25:26.615Z,38.73
2019-03-30T05:27:54.457Z,37.67
2019-03-30T05:30:22.030Z,35.27
2019-03-30T05:32:49.615Z,33.37
2019-03-30T05:35:17.238Z,29.33
2019-03-30T05:37:44.850Z,33.80
2019-03-30T05:40:12.562Z,33.60
2019-03-30T05:42:40.193Z,36.10
2019-03-30T05:45:08.102Z,32.53
2019-03-30T05:47:35.785Z,38.37
2019-03-30T05:50:03.722Z,31.77
2019-03-30T05:52:31.397Z,32.97
2019-03-30T05:54:59.085Z,36.20
2019-03-30T05:57:26.693Z,33.33
2019-03-30T05:59:56.080Z,34.63
2019-03-30T06:02:23.787Z,31.03
2019-03-30T06:04:51.490Z,40.00
2019-03-30T06:07:19.077Z,42.00
2019-03-30T06:09:46.686Z,35.93
2019-03-30T06:12:14.298Z,42.00
2019-03-30T06:14:41.940Z,39.77
2019-03-30T06:17:11.341Z,35.17
2019-03-30T06:19:39.098Z,40.13
2019-03-30T06:22:06.701Z,37.27
2019-03-30T06:24:34.389Z,35.33
2019-03-30T06:27:02.011Z,40.60
2019-03-30T06:29:29.607Z,48.47
2019-03-30T06:31:57.314Z,42.33
2019-03-30T06:34:25.014Z,52.57
2019-03-30T06:36:52.629Z,43.63
2019-03-30T06:39:20.226Z,44.50
2019-03-30T06:41:47.844Z,41.77
2019-03-30T06:44:15.448Z,39.30
2019-03-30T06:46:43.050Z,36.33
2019-03-30T06:49:10.707Z,34.93
2019-03-30T06:51:38.307Z,32.50
2019-03-30T06:54:06.051Z,32.00
2019-03-30T06:56:33.692Z,28.23
2019-03-30T06:59:01.288Z,29.67
2019-03-30T07:01:29.194Z,29.40
2019-03-30T07:03:56.985Z,29.17
2019-03-30T07:06:26.180Z,26.23
2019-03-30T07:08:56.131Z,27.50
2019-03-30T07:11:27.143Z,26.93
2019-03-30T07:13:56.729Z,27.10
2019-03-30T07:16:27.627Z,23.10
2019-03-30T07:18:57.369Z,22.50
2019-03-30T07:21:26.769Z,23.37
2019-03-30T07:23:54.387Z,22.63
2019-03-30T07:26:22.003Z,22.97
